Time;durP1;ratioP1;P1;durP2;ratioP2;P2;SDS_P1;SDS_P2;PMS_P1;PMS_P2;Temp;Humidity;BMP_temperature;BMP_pressure;BME280_temperature;BME280_humidity;BME280_pressure;Samples;Min_cycle;Max_cycle;Signal;HPM_P1;HPM_P2
2022/09/20 00:02:21;;;;;;;1.38;1.20;;;;;;;13.86;100.00;100093.28;5017338;28;20265;-72
2022/09/20 00:04:49;;;;;;;1.40;1.40;;;;;;;14.10;100.00;100126.34;5016942;28;20209;-71
2022/09/20 00:07:16;;;;;;;2.28;1.42;;;;;;;14.10;100.00;100142.84;5052028;28;20314;-73
2022/09/20 00:09:44;;;;;;;1.23;1.23;;;;;;;14.02;100.00;100144.56;5052292;28;20195;-72
2022/09/20 00:12:11;;;;;;;1.27;1.27;;;;;;;13.92;100.00;100116.75;5017015;28;20196;-72
2022/09/20 00:14:37;;;;;;;1.30;1.30;;;;;;;13.90;100.00;100121.97;5052176;28;20679;-73
2022/09/20 00:17:04;;;;;;;1.27;1.27;;;;;;;14.10;100.00;100132.44;5052287;28;20204;-71
2022/09/20 00:19:31;;;;;;;1.50;1.40;;;;;;;14.08;100.00;100134.19;5052480;28;20210;-72
2022/09/20 00:21:58;;;;;;;1.00;0.88;;;;;;;14.03;100.00;100135.91;5052262;28;20620;-74
2022/09/20 00:24:24;;;;;;;1.33;1.33;;;;;;;13.91;100.00;100125.47;5052024;28;20676;-72
2022/09/20 00:26:54;;;;;;;0.98;0.98;;;;;;;13.99;100.00;100128.06;5051747;28;20195;-73
2022/09/20 00:29:20;;;;;;;1.00;1.00;;;;;;;13.87;100.00;100123.72;5051206;28;20230;-72
2022/09/20 00:31:47;;;;;;;1.00;1.00;;;;;;;13.62;100.00;100093.25;5051794;28;20207;-73
2022/09/20 00:37:13;;;;;;;1.33;1.30;;;;;;;13.74;100.00;100121.91;5009925;28;20224;-73
2022/09/20 00:39:39;;;;;;;1.00;1.00;;;;;;;13.72;100.00;100113.25;5009598;28;20209;-73
2022/09/20 00:42:13;;;;;;;1.35;1.35;;;;;;;13.78;100.00;100111.50;4961011;28;20255;-73
2022/09/20 00:44:49;;;;;;;3.00;1.25;;;;;;;13.85;100.00;100109.78;5009467;28;20200;-73
2022/09/20 00:47:29;;;;;;;1.50;1.50;;;;;;;13.90;100.00;100105.47;5009205;28;20852;-73
2022/09/20 00:50:02;;;;;;;1.63;1.52;;;;;;;13.78;100.00;100105.44;5009780;28;20204;-73
2022/09/20 00:52:30;;;;;;;1.60;1.50;;;;;;;13.58;100.00;100073.25;5009726;28;20614;-72
2022/09/20 00:54:58;;;;;;;1.50;1.38;;;;;;;13.75;100.00;100092.41;5007661;28;20259;-72
2022/09/20 00:57:26;;;;;;;2.58;1.42;;;;;;;13.44;100.00;100049.78;5006503;28;20231;-72
2022/09/20 00:59:54;;;;;;;1.65;1.55;;;;;;;13.73;100.00;100091.53;4957514;28;20205;-77
2022/09/20 01:02:25;;;;;;;4.50;1.58;;;;;;;13.73;100.00;100091.53;5007635;28;20363;-72
2022/09/20 01:04:52;;;;;;;1.73;1.48;;;;;;;13.68;100.00;100098.47;4960931;28;20376;-72
2022/09/20 01:07:22;;;;;;;1.40;1.40;;;;;;;13.64;100.00;100099.31;4966678;28;20199;-73
2022/09/20 01:09:49;;;;;;;1.52;1.50;;;;;;;13.67;100.00;100104.53;5051429;28;20751;-72
2022/09/20 01:12:19;;;;;;;1.70;1.63;;;;;;;13.72;100.00;100097.59;5051541;28;20203;-72
2022/09/20 01:14:51;;;;;;;1.55;1.55;;;;;;;13.71;100.00;100101.06;5051241;28;20265;-72
2022/09/20 01:17:24;;;;;;;1.80;1.70;;;;;;;13.61;100.00;100099.31;5051421;28;20211;-72
2022/09/20 01:20:03;;;;;;;1.85;1.75;;;;;;;13.61;100.00;100096.69;5051413;28;20663;-73
2022/09/20 01:22:41;;;;;;;1.40;1.40;;;;;;;13.66;100.00;100102.81;5051155;28;20639;-72
2022/09/20 01:25:14;;;;;;;2.08;1.75;;;;;;;13.56;100.00;100091.47;5051102;28;20618;-72
2022/09/20 01:27:45;;;;;;;1.50;1.50;;;;;;;13.51;100.00;100088.00;5051208;28;20273;-72
2022/09/20 01:30:16;;;;;;;3.45;1.92;;;;;;;13.46;100.00;100094.91;5050960;28;20210;-73
2022/09/20 01:33:07;;;;;;;2.28;2.17;;;;;;;13.43;100.00;100084.50;5051154;28;20607;-72
2022/09/20 01:35:35;;;;;;;2.00;1.90;;;;;;;13.45;100.00;100084.50;5051008;28;20207;-72
2022/09/20 01:38:24;;;;;;;1.90;1.80;;;;;;;13.35;100.00;100081.84;5051037;28;20238;-72
2022/09/20 01:41:03;;;;;;;2.17;2.08;;;;;;;13.43;100.00;100094.91;5050998;28;20195;-72
2022/09/20 01:43:36;;;;;;;1.63;1.52;;;;;;;13.33;100.00;100088.81;5051234;28;20257;-71
2022/09/20 01:46:12;;;;;;;2.10;2.00;;;;;;;13.40;100.00;100092.28;5050157;28;20227;-71
2022/09/20 01:48:40;;;;;;;1.70;1.60;;;;;;;13.43;100.00;100094.91;5045278;28;20210;-72
2022/09/20 01:51:36;;;;;;;1.90;1.80;;;;;;;13.35;100.00;100094.00;5044711;28;20207;-72
2022/09/20 01:54:40;;;;;;;2.10;2.00;;;;;;;13.44;100.00;100080.16;5043447;28;20200;-72
2022/09/20 01:57:46;;;;;;;2.28;2.17;;;;;;;13.43;100.00;100094.03;5043826;28;20222;-72
2022/09/20 02:00:17;;;;;;;3.33;1.77;;;;;;;13.40;100.00;100105.31;5047660;28;20625;-73
2022/09/20 02:03:31;;;;;;;1.77;1.67;;;;;;;13.40;100.00;100106.19;5047789;28;20199;-72
2022/09/20 02:06:28;;;;;;;1.55;1.55;;;;;;;13.37;100.00;100095.78;5016918;28;20196;-71
2022/09/20 02:09:48;;;;;;;2.50;2.30;;;;;;;13.40;100.00;100094.91;4932662;29;20779;-72
2022/09/20 02:12:43;;;;;;;2.22;2.03;;;;;;;13.35;100.00;100087.06;4803332;29;21110;-72
2022/09/20 02:15:29;;;;;;;1.40;1.40;;;;;;;13.34;100.00;100098.34;4801828;29;20212;-72
2022/09/20 02:18:09;;;;;;;1.73;1.63;;;;;;;13.10;100.00;100061.78;4803937;29;20238;-72
2022/09/20 02:20:49;;;;;;;1.92;1.83;;;;;;;13.23;100.00;100092.25;4804496;29;20216;-73
2022/09/20 02:23:29;;;;;;;2.40;2.25;;;;;;;13.21;100.00;100101.75;4805388;29;20754;-72
2022/09/20 02:26:05;;;;;;;2.53;2.33;;;;;;;13.23;100.00;100092.25;4801787;29;20288;-72
2022/09/20 02:28:51;;;;;;;1.95;1.85;;;;;;;13.06;100.00;100083.41;4803022;29;20215;-72
2022/09/20 02:31:33;;;;;;;4.43;2.30;;;;;;;13.29;100.00;100101.81;4775235;29;20208;-72
2022/09/20 02:34:23;;;;;;;2.00;1.90;;;;;;;13.26;100.00;100107.88;4805050;29;20257;-72
2022/09/20 02:37:11;;;;;;;1.80;1.70;;;;;;;13.26;100.00;100117.41;4808679;29;21042;-72
2022/09/20 02:39:50;;;;;;;2.30;2.20;;;;;;;12.87;100.00;100029.56;4815114;29;20225;-72
2022/09/20 02:42:21;;;;;;;2.30;2.20;;;;;;;13.13;100.00;100072.22;4852491;29;20202;-72
2022/09/20 02:44:58;;;;;;;2.35;1.73;;;;;;;13.29;100.00;100112.22;4856835;29;20209;-72
2022/09/20 02:47:33;;;;;;;2.00;1.90;;;;;;;13.25;100.00;100095.72;4973148;28;20748;-71
2022/09/20 02:50:18;;;;;;;2.65;2.45;;;;;;;13.26;100.00;100114.81;5048866;28;20309;-72
2022/09/20 02:52:58;;;;;;;2.60;2.50;;;;;;;13.30;100.00;100117.44;5053896;28;20195;-72
2022/09/20 02:55:34;;;;;;;2.00;1.90;;;;;;;13.21;100.00;100119.97;5053754;28;20261;-72
2022/09/20 02:58:15;;;;;;;1.50;1.50;;;;;;;13.20;100.00;100112.16;5053694;28;20296;-72
2022/09/20 03:00:48;;;;;;;2.40;2.30;;;;;;;13.16;100.00;100126.88;5051820;28;20207;-72
2022/09/20 03:03:23;;;;;;;2.40;2.30;;;;;;;13.18;100.00;100119.09;5053648;28;20212;-73
2022/09/20 03:06:01;;;;;;;2.47;2.38;;;;;;;13.03;100.00;100105.97;5052762;28;20725;-72
2022/09/20 03:08:37;;;;;;;2.90;2.70;;;;;;;13.20;100.00;100117.34;5052829;28;20294;-69
2022/09/20 03:11:15;;;;;;;2.80;2.65;;;;;;;13.22;100.00;100113.94;5052314;28;20446;-73
2022/09/20 03:14:00;;;;;;;2.38;2.28;;;;;;;13.59;100.00;100117.53;5052168;28;20916;-72
2022/09/20 03:16:35;;;;;;;2.53;2.33;;;;;;;13.22;100.00;100095.69;5053446;28;20227;-73
2022/09/20 03:19:15;;;;;;;2.08;1.98;;;;;;;13.25;100.00;100103.50;5052949;28;20666;-73
2022/09/20 03:22:00;;;;;;;2.58;2.47;;;;;;;13.26;100.00;100109.59;5053322;28;20607;-73
2022/09/20 03:24:39;;;;;;;2.33;2.13;;;;;;;13.34;100.00;100123.53;5052941;28;20290;-72
2022/09/20 03:27:16;;;;;;;2.05;1.95;;;;;;;13.34;100.00;100113.97;5052799;28;20282;-72
2022/09/20 03:29:58;;;;;;;2.22;2.13;;;;;;;13.31;100.00;100119.16;5052835;28;20203;-72
2022/09/20 03:32:43;;;;;;;1.83;1.73;;;;;;;13.33;100.00;100107.03;5052438;28;20745;-72
2022/09/20 03:35:28;;;;;;;1.65;1.60;;;;;;;13.21;100.00;100104.38;5048998;28;20276;-72
2022/09/20 03:38:14;;;;;;;2.08;1.92;;;;;;;13.23;100.00;100102.66;5052658;28;20207;-72
2022/09/20 03:41:26;;;;;;;2.30;2.20;;;;;;;13.33;100.00;100119.19;5052818;28;20200;-73
2022/09/20 03:44:10;;;;;;;2.13;1.98;;;;;;;13.18;100.00;100099.16;4957898;28;20209;-71
2022/09/20 03:46:44;;;;;;;2.28;2.08;;;;;;;13.01;100.00;100094.69;4990011;28;20249;-73
2022/09/20 03:49:49;;;;;;;1.80;1.75;;;;;;;13.17;100.00;100106.94;4990198;28;20268;-72
2022/09/20 03:52:34;;;;;;;3.13;2.83;;;;;;;13.21;100.00;100124.31;4985498;28;20264;-72
2022/09/20 03:55:38;;;;;;;2.47;2.30;;;;;;;12.99;100.00;100125.91;4985795;28;20259;-74
2022/09/20 03:58:26;;;;;;;2.92;2.50;;;;;;;13.03;100.00;100125.06;4926102;29;20210;-72
2022/09/20 04:01:08;;;;;;;2.83;2.65;;;;;;;12.95;100.00;100129.34;4933068;29;20595;-73
2022/09/20 04:03:45;;;;;;;2.38;2.25;;;;;;;12.90;100.00;100111.13;4932947;29;20838;-73
2022/09/20 04:06:47;;;;;;;2.22;2.13;;;;;;;12.98;100.00;100131.13;4932719;29;20195;-73
2022/09/20 04:09:41;;;;;;;2.53;2.38;;;;;;;12.92;100.00;100139.72;4932942;29;20543;-72
2022/09/20 04:12:20;;;;;;;3.92;2.33;;;;;;;13.00;100.00;100140.66;4932933;29;20215;-72
2022/09/20 04:14:53;;;;;;;2.83;2.22;;;;;;;13.00;100.00;100139.78;4919655;29;20207;-73
2022/09/20 04:17:31;;;;;;;2.47;2.38;;;;;;;13.03;100.00;100143.28;4932854;29;20203;-71
2022/09/20 04:20:03;;;;;;;2.28;2.17;;;;;;;13.12;100.00;100145.09;4990258;28;20302;-71
2022/09/20 04:22:31;;;;;;;2.10;2.00;;;;;;;12.91;100.00;100145.81;5009792;28;20266;-72
2022/09/20 04:25:05;;;;;;;1.60;1.50;;;;;;;13.06;100.00;100156.31;4993679;28;20616;-72
2022/09/20 04:27:37;;;;;;;2.80;2.70;;;;;;;13.10;100.00;100152.91;5010156;28;20274;-72
2022/09/20 04:30:11;;;;;;;1.98;1.88;;;;;;;13.24;100.00;100156.44;5010044;28;20251;-72
2022/09/20 04:32:44;;;;;;;3.15;2.40;;;;;;;13.13;100.00;100150.31;5009973;28;20197;-72
2022/09/20 04:38:12;;;;;;;2.65;2.45;;;;;;;13.15;100.00;100134.72;5031935;28;20742;-69
2022/09/20 04:41:00;;;;;;;2.17;2.00;;;;;;;13.19;100.00;100155.56;4996763;28;20210;-69
2022/09/20 04:44:00;;;;;;;2.92;2.60;;;;;;;13.10;100.00;100163.31;5031597;28;20237;-69
2022/09/20 04:46:54;;;;;;;6.60;3.05;;;;;;;13.04;100.00;100158.03;5031586;28;20750;-69
2022/09/20 04:49:43;;;;;;;2.97;2.78;;;;;;;13.17;100.00;100159.88;5032538;28;20281;-69
2022/09/20 04:52:46;;;;;;;5.63;3.15;;;;;;;13.22;100.00;100168.59;5051445;28;20203;-69
2022/09/20 04:55:44;;;;;;;2.67;2.47;;;;;;;13.17;100.00;100166.81;5050315;28;22593;-69
2022/09/20 04:58:35;;;;;;;2.05;1.95;;;;;;;13.20;100.00;100165.09;5048979;28;20191;-69
2022/09/20 05:01:41;;;;;;;2.25;2.15;;;;;;;13.51;100.00;100178.28;5032676;28;20639;-71
2022/09/20 05:04:40;;;;;;;3.83;2.30;;;;;;;13.43;100.00;100179.97;5051052;28;20286;-68
2022/09/20 05:07:45;;;;;;;4.32;2.33;;;;;;;13.51;100.00;100179.16;5051448;28;20202;-69
2022/09/20 05:10:48;;;;;;;2.67;2.47;;;;;;;13.60;100.00;100186.13;4934890;29;20302;-68
2022/09/20 05:13:30;;;;;;;3.15;2.58;;;;;;;13.63;100.00;100196.56;4936752;29;20298;-68
2022/09/20 05:16:02;;;;;;;2.55;2.35;;;;;;;13.42;100.00;100202.56;4947536;29;20206;-69
2022/09/20 05:19:02;;;;;;;2.35;2.25;;;;;;;13.49;100.00;100204.31;4939241;29;20758;-68
2022/09/20 05:21:48;;;;;;;5.57;2.72;;;;;;;13.65;100.00;100206.16;4908235;29;20222;-69
2022/09/20 05:24:45;;;;;;;2.65;2.55;;;;;;;13.77;100.00;100210.53;4912139;29;20284;-68
2022/09/20 05:27:27;;;;;;;3.92;2.35;;;;;;;13.64;100.00;100172.25;4845485;29;20279;-67
2022/09/20 05:30:03;;;;;;;15.73;8.05;;;;;;;13.78;100.00;100209.66;4837999;29;20696;-69
2022/09/20 05:32:40;;;;;;;2.30;2.20;;;;;;;13.93;100.00;100201.03;4856302;29;20714;-68
2022/09/20 05:35:16;;;;;;;2.30;1.98;;;;;;;13.91;100.00;100194.06;4856166;29;20218;-68
2022/09/20 05:37:50;;;;;;;2.65;2.45;;;;;;;14.03;100.00;100208.91;4849430;29;20198;-69
2022/09/20 05:40:25;;;;;;;2.95;2.75;;;;;;;14.15;100.00;100205.47;4839833;29;20810;-68
2022/09/20 05:42:59;;;;;;;2.20;2.10;;;;;;;14.21;100.00;100211.56;4856582;29;20250;-69
2022/09/20 05:45:47;;;;;;;2.65;2.45;;;;;;;14.49;100.00;100206.41;4855877;29;20325;-68
2022/09/20 05:48:17;;;;;;;1.98;1.88;;;;;;;14.43;100.00;100216.84;4959541;28;20213;-69
2022/09/20 05:50:52;;;;;;;3.10;2.40;;;;;;;14.66;100.00;100209.94;4966576;28;20225;-69
2022/09/20 05:53:48;;;;;;;2.45;2.35;;;;;;;14.69;98.93;100212.53;4960656;28;20682;-69
2022/09/20 05:56:26;;;;;;;2.17;2.08;;;;;;;14.82;98.59;100207.31;4843800;29;20570;-69
2022/09/20 05:59:16;;;;;;;2.63;2.22;;;;;;;14.99;97.01;100209.91;4855948;29;20254;-68
2022/09/20 06:01:58;;;;;;;1.85;1.75;;;;;;;15.15;96.36;100222.09;4857233;29;20210;-70
2022/09/20 06:04:34;;;;;;;2.13;2.00;;;;;;;15.30;94.55;100215.97;4890232;29;20227;-69
2022/09/20 06:07:08;;;;;;;1.88;1.77;;;;;;;14.92;96.46;100217.72;4930784;29;20203;-68
2022/09/20 06:10:00;;;;;;;2.25;2.08;;;;;;;14.97;95.12;100229.94;4930820;29;20203;-68
2022/09/20 06:12:38;;;;;;;1.88;1.77;;;;;;;14.76;96.28;100229.94;4931027;29;20215;-68
2022/09/20 06:15:16;;;;;;;2.00;1.90;;;;;;;14.99;94.56;100230.78;4931099;29;20294;-68
2022/09/20 06:17:53;;;;;;;4.18;1.73;;;;;;;14.93;94.76;100225.56;4928276;29;20222;-69
2022/09/20 06:20:28;;;;;;;4.70;2.00;;;;;;;14.92;93.74;100221.22;4931001;29;20345;-71
2022/09/20 06:22:58;;;;;;;1.92;1.77;;;;;;;14.86;94.53;100229.06;4930927;29;20207;-71
2022/09/20 06:25:29;;;;;;;1.52;1.42;;;;;;;15.05;92.53;100228.19;4884112;29;20286;-71
2022/09/20 06:28:01;;;;;;;2.00;1.90;;;;;;;15.36;91.74;100235.13;4930782;29;20243;-71
2022/09/20 06:30:31;;;;;;;2.08;1.95;;;;;;;15.39;91.22;100234.22;4930775;29;20208;-71
2022/09/20 06:33:09;;;;;;;1.77;1.73;;;;;;;15.68;89.65;100235.06;4973828;28;20198;-71
2022/09/20 06:35:40;;;;;;;4.25;2.13;;;;;;;15.65;88.71;100221.13;5070283;28;20206;-71
2022/09/20 06:41:27;;;;;;;1.75;1.65;;;;;;;15.75;87.29;100243.75;5070195;28;20198;-71
2022/09/20 06:43:57;;;;;;;2.08;1.48;;;;;;;15.71;87.42;100234.16;5071177;28;20203;-71
2022/09/20 06:46:26;;;;;;;1.90;1.80;;;;;;;15.80;86.98;100236.78;5022727;28;20305;-71
2022/09/20 06:48:54;;;;;;;1.85;1.75;;;;;;;15.87;86.22;100228.03;5073797;28;20206;-71
2022/09/20 06:51:21;;;;;;;1.52;1.38;;;;;;;15.84;85.11;100218.41;5073863;28;20206;-71
2022/09/20 06:53:49;;;;;;;1.75;1.65;;;;;;;15.77;85.18;100248.09;5073786;28;20674;-71
2022/09/20 06:56:20;;;;;;;1.70;1.60;;;;;;;15.68;86.74;100242.03;5073618;28;20202;-70
2022/09/20 06:58:46;;;;;;;1.48;1.48;;;;;;;15.60;87.18;100238.56;5073680;28;20202;-71
2022/09/20 07:01:13;;;;;;;1.70;1.60;;;;;;;15.60;87.05;100243.78;5073325;28;20199;-70
2022/09/20 07:03:40;;;;;;;2.92;1.73;;;;;;;15.63;86.26;100246.38;5073789;28;20229;-71
2022/09/20 07:06:10;;;;;;;1.98;1.63;;;;;;;15.77;86.03;100247.22;5073532;28;20199;-70
2022/09/20 07:08:37;;;;;;;1.80;1.70;;;;;;;15.76;86.25;100237.66;5073396;28;20599;-70
2022/09/20 07:11:05;;;;;;;1.60;1.60;;;;;;;15.92;86.17;100257.63;5073414;28;20213;-70
2022/09/20 07:13:32;;;;;;;1.83;1.70;;;;;;;15.83;85.90;100244.59;5073212;28;20207;-70
2022/09/20 07:16:03;;;;;;;1.58;1.48;;;;;;;16.04;84.76;100247.13;5073318;28;20206;-70
2022/09/20 07:18:32;;;;;;;1.40;1.40;;;;;;;15.76;84.38;100221.97;5073007;28;20203;-70
2022/09/20 07:20:59;;;;;;;1.45;1.35;;;;;;;16.08;83.70;100253.22;5072989;28;20238;-70
2022/09/20 07:23:28;;;;;;;1.73;1.63;;;;;;;16.10;81.44;100223.53;5073069;28;20194;-70
2022/09/20 07:25:59;;;;;;;1.52;1.42;;;;;;;15.95;80.63;100257.59;5073044;28;20195;-70
2022/09/20 07:28:27;;;;;;;1.40;1.40;;;;;;;16.23;81.46;100253.13;5072870;28;20209;-70
2022/09/20 07:30:54;;;;;;;1.98;1.13;;;;;;;16.14;80.20;100264.50;5073333;28;20340;-70
2022/09/20 07:33:23;;;;;;;6.10;1.20;;;;;;;16.28;80.29;100247.00;5072970;28;20202;-70
2022/09/20 07:35:51;;;;;;;1.30;1.30;;;;;;;16.32;80.03;100243.47;5073050;28;20294;-73
2022/09/20 07:38:18;;;;;;;2.55;1.50;;;;;;;16.64;78.78;100263.38;5072875;28;20202;-71
2022/09/20 07:40:46;;;;;;;1.10;1.02;;;;;;;16.41;75.69;100252.16;5072720;28;20241;-71
2022/09/20 07:43:13;;;;;;;1.20;1.20;;;;;;;16.43;76.67;100234.69;5072670;28;20588;-71
2022/09/20 07:45:40;;;;;;;1.38;1.30;;;;;;;16.58;75.98;100245.97;5072821;28;20710;-72
2022/09/20 07:48:07;;;;;;;1.58;1.42;;;;;;;16.71;75.55;100270.31;5072941;28;20547;-71
2022/09/20 07:50:35;;;;;;;1.15;1.15;;;;;;;16.80;75.83;100254.56;5072603;28;20199;-72
2022/09/20 07:53:02;;;;;;;1.48;1.38;;;;;;;17.14;72.84;100253.38;5072643;28;20252;-72
2022/09/20 07:55:29;;;;;;;1.25;1.23;;;;;;;17.08;70.97;100258.69;5072238;28;20863;-72
2022/09/20 07:57:57;;;;;;;1.27;1.27;;;;;;;17.26;71.00;100253.28;5072651;28;20194;-71
2022/09/20 08:00:25;;;;;;;1.20;1.20;;;;;;;17.18;72.23;100254.22;5072545;28;20226;-71
2022/09/20 08:02:59;;;;;;;1.40;1.40;;;;;;;16.99;72.82;100258.75;5072781;28;20233;-71
2022/09/20 08:05:26;;;;;;;2.40;1.60;;;;;;;17.19;73.34;100256.81;5072329;28;20207;-72
2022/09/20 08:07:53;;;;;;;1.25;1.25;;;;;;;17.28;73.55;100256.75;5072486;28;20274;-71
2022/09/20 08:10:19;;;;;;;1.60;1.50;;;;;;;17.16;71.15;100235.88;5072427;28;20198;-72
2022/09/20 08:12:46;;;;;;;1.30;1.30;;;;;;;17.13;70.59;100259.50;5072086;28;20693;-71
2022/09/20 08:15:15;;;;;;;1.20;1.20;;;;;;;17.16;72.86;100259.47;5036680;28;20191;-72
2022/09/20 08:17:42;;;;;;;1.10;1.10;;;;;;;17.30;71.50;100254.13;5037622;28;20202;-72
2022/09/20 08:20:09;;;;;;;1.20;1.20;;;;;;;17.13;70.50;100256.88;5072165;28;20722;-72
2022/09/20 08:22:38;;;;;;;1.10;1.10;;;;;;;17.04;68.51;100264.84;5069911;28;20194;-72
2022/09/20 08:25:05;;;;;;;1.17;1.17;;;;;;;17.18;69.06;100244.63;5072001;28;20199;-72
2022/09/20 08:27:32;;;;;;;1.42;1.27;;;;;;;17.17;65.87;100258.59;5053375;28;20301;-72
2022/09/20 08:30:00;;;;;;;1.10;1.10;;;;;;;17.13;65.86;100250.75;5069189;28;20724;-71
2022/09/20 08:32:28;;;;;;;1.50;1.40;;;;;;;17.49;66.00;100249.53;5071833;28;20205;-71
2022/09/20 08:34:54;;;;;;;1.85;1.13;;;;;;;17.29;64.66;100255.88;5071614;28;20207;-71
2022/09/20 08:37:21;;;;;;;1.90;1.45;;;;;;;17.48;64.31;100248.66;5071758;28;20206;-71
2022/09/20 08:39:48;;;;;;;1.40;1.30;;;;;;;17.44;65.29;100243.50;5071657;28;20235;-72
2022/09/20 08:42:27;;;;;;;1.38;1.38;;;;;;;17.78;65.40;100234.41;5071789;28;20203;-69
2022/09/20 08:44:59;;;;;;;2.42;1.13;;;;;;;17.85;65.30;100243.94;5057700;28;20714;-69
2022/09/20 08:47:29;;;;;;;3.00;1.63;;;;;;;17.86;65.86;100250.91;5071399;28;20199;-69
2022/09/20 08:49:59;;;;;;;4.75;1.10;;;;;;;18.05;64.36;100241.91;5054874;28;20251;-69
2022/09/20 08:52:30;;;;;;;1.55;1.30;;;;;;;18.29;63.36;100241.63;5060925;28;20195;-69
2022/09/20 08:55:01;;;;;;;1.40;1.30;;;;;;;18.17;62.83;100243.53;5071422;28;20222;-69
2022/09/20 08:57:32;;;;;;;1.40;1.33;;;;;;;17.93;63.35;100231.59;5071603;28;20210;-69
2022/09/20 08:59:59;;;;;;;1.20;1.20;;;;;;;18.11;64.69;100239.22;5069942;28;20265;-69
2022/09/20 09:02:31;;;;;;;1.10;1.10;;;;;;;18.13;61.25;100221.69;5059049;28;20214;-70
2022/09/20 09:04:58;;;;;;;1.60;1.50;;;;;;;18.15;62.47;100227.81;5071542;28;20206;-69
2022/09/20 09:07:27;;;;;;;2.45;1.20;;;;;;;18.38;61.49;100213.47;5043190;28;20560;-69
2022/09/20 09:09:56;;;;;;;1.30;1.30;;;;;;;18.31;60.09;100220.56;5040406;28;20215;-69
2022/09/20 09:12:25;;;;;;;2.20;1.33;;;;;;;18.08;59.89;100225.28;5055819;28;20206;-69
2022/09/20 09:14:54;;;;;;;1.42;1.33;;;;;;;18.27;59.64;100219.75;5071108;28;20210;-69
2022/09/20 09:17:23;;;;;;;1.30;1.20;;;;;;;18.39;60.52;100209.97;5031655;28;20253;-70
2022/09/20 09:19:54;;;;;;;1.70;1.60;;;;;;;18.55;60.59;100216.78;5061513;28;20282;-69
2022/09/20 09:22:26;;;;;;;1.13;1.10;;;;;;;18.25;61.95;100197.03;5056571;28;20209;-70
2022/09/20 09:25:23;;;;;;;1.73;1.50;;;;;;;18.55;60.53;100216.78;4999315;28;20291;-68
2022/09/20 09:27:55;;;;;;;1.13;1.13;;;;;;;18.80;60.54;100207.59;4989390;28;20225;-69
2022/09/20 09:30:25;;;;;;;1.20;1.20;;;;;;;19.15;59.43;100189.47;4989514;28;20201;-70
2022/09/20 09:32:52;;;;;;;1.40;1.40;;;;;;;18.92;60.63;100183.75;5008351;28;20241;-70
2022/09/20 09:35:30;;;;;;;3.22;1.05;;;;;;;18.82;60.48;100211.06;5008931;28;20207;-69
2022/09/20 09:38:00;;;;;;;1.35;1.25;;;;;;;18.47;61.15;100193.22;5004157;28;20291;-70
2022/09/20 09:40:28;;;;;;;1.58;1.20;;;;;;;18.08;61.97;100131.69;4999998;28;20224;-70
2022/09/20 09:42:57;;;;;;;2.05;1.05;;;;;;;18.47;61.53;100205.47;5036261;28;20264;-70
2022/09/20 09:45:30;;;;;;;1.58;0.98;;;;;;;18.72;61.08;100188.47;5052285;28;20309;-70
2022/09/20 09:48:00;;;;;;;2.25;1.38;;;;;;;18.53;61.86;100181.78;5070566;28;20206;-70
2022/09/20 09:50:30;;;;;;;1.52;1.08;;;;;;;18.51;61.93;100189.69;5070345;28;20223;-70
2022/09/20 09:52:59;;;;;;;1.02;1.02;;;;;;;18.52;62.50;100185.28;5071036;28;20294;-69
2022/09/20 09:55:36;;;;;;;1.13;1.13;;;;;;;18.87;61.27;100184.72;5070946;28;20199;-69
2022/09/20 09:58:11;;;;;;;2.33;1.20;;;;;;;18.76;60.41;100190.16;5070578;28;20588;-69
2022/09/20 10:00:44;;;;;;;1.35;1.25;;;;;;;18.94;60.63;100192.44;5070736;28;20760;-70
2022/09/20 10:03:33;;;;;;;1.10;1.10;;;;;;;18.81;59.67;100162.91;5035286;28;20198;-70
2022/09/20 10:06:10;;;;;;;0.95;0.95;;;;;;;18.83;59.47;100190.94;5028426;28;20213;-70
2022/09/20 10:08:49;;;;;;;1.33;1.20;;;;;;;18.69;58.95;100183.28;5028109;28;20200;-70
2022/09/20 10:11:30;;;;;;;1.30;1.10;;;;;;;18.78;59.45;100189.25;5028371;28;20711;-70
2022/09/20 10:14:10;;;;;;;1.00;1.00;;;;;;;18.82;59.22;100179.53;5028319;28;20215;-69
2022/09/20 10:16:54;;;;;;;1.05;1.05;;;;;;;18.83;58.63;100158.47;5028380;28;20192;-70
2022/09/20 10:19:33;;;;;;;1.10;1.10;;;;;;;19.14;58.66;100185.09;5030035;28;20207;-69
2022/09/20 10:22:08;;;;;;;1.15;1.05;;;;;;;19.24;58.34;100175.28;5031821;28;20224;-69
2022/09/20 10:24:50;;;;;;;1.00;1.00;;;;;;;19.25;58.63;100170.00;5032113;28;20246;-70
2022/09/20 10:27:35;;;;;;;1.05;1.05;;;;;;;19.36;57.73;100184.72;5033276;28;20204;-70
2022/09/20 10:30:09;;;;;;;1.27;1.27;;;;;;;19.43;57.67;100184.59;5031654;28;20668;-70
2022/09/20 10:32:51;;;;;;;1.00;1.00;;;;;;;19.38;55.28;100185.53;5016046;28;20724;-70
2022/09/20 10:35:28;;;;;;;1.15;1.15;;;;;;;19.37;55.08;100181.19;5016486;28;20192;-70
2022/09/20 10:38:14;;;;;;;0.88;0.88;;;;;;;19.64;55.36;100181.53;5015693;28;20200;-70
2022/09/20 10:43:49;;;;;;;0.90;0.90;;;;;;;19.58;54.37;100172.91;5059677;28;20226;-69
2022/09/20 10:46:25;;;;;;;1.13;1.13;;;;;;;19.80;54.43;100164.53;5073984;28;20230;-70
2022/09/20 10:49:02;;;;;;;1.13;1.10;;;;;;;20.07;53.69;100152.53;5073919;28;20689;-70
2022/09/20 10:51:42;;;;;;;1.10;1.10;;;;;;;19.86;55.11;100153.03;5073925;28;20199;-69
2022/09/20 10:54:23;;;;;;;1.20;1.10;;;;;;;19.81;54.44;100154.88;5073884;28;20226;-70
2022/09/20 10:57:11;;;;;;;2.15;0.90;;;;;;;19.83;53.88;100145.19;5065830;28;20207;-69
2022/09/20 10:59:50;;;;;;;1.23;1.10;;;;;;;20.18;52.05;100140.00;5034142;28;20644;-69
2022/09/20 11:02:33;;;;;;;1.08;1.05;;;;;;;20.45;51.28;100137.63;5032188;28;20236;-69
2022/09/20 11:05:29;;;;;;;0.90;0.90;;;;;;;20.45;50.20;100135.00;5033192;28;20250;-71
2022/09/20 11:08:08;;;;;;;1.65;1.20;;;;;;;20.64;50.05;100095.00;5049982;28;20195;-71
2022/09/20 11:10:41;;;;;;;0.90;0.90;;;;;;;20.48;50.93;100142.81;5053009;28;20575;-68
2022/09/20 11:13:18;;;;;;;2.60;1.00;;;;;;;20.53;49.92;100140.94;5018139;28;20298;-71
2022/09/20 11:15:50;;;;;;;3.90;1.02;;;;;;;20.64;49.49;100107.31;5034854;28;20206;-70
2022/09/20 11:18:23;;;;;;;1.92;0.90;;;;;;;20.85;49.27;100126.97;5053356;28;20208;-69
2022/09/20 11:20:57;;;;;;;1.05;1.02;;;;;;;21.08;49.26;100130.72;5053122;28;20645;-71
2022/09/20 11:23:33;;;;;;;0.80;0.80;;;;;;;20.63;50.73;100121.38;5053304;28;20256;-70
2022/09/20 11:26:08;;;;;;;1.30;1.20;;;;;;;20.77;49.96;100103.44;5053243;28;20294;-69
2022/09/20 11:28:40;;;;;;;1.48;1.38;;;;;;;21.20;49.39;100114.59;5053414;28;20191;-69
2022/09/20 11:31:11;;;;;;;1.63;1.08;;;;;;;21.59;47.09;100123.16;5017493;28;20207;-69
2022/09/20 11:33:44;;;;;;;1.00;1.00;;;;;;;21.60;47.49;100124.88;5053272;28;20822;-71
2022/09/20 11:36:19;;;;;;;0.80;0.80;;;;;;;20.92;48.22;100103.03;5052920;28;20199;-70
2022/09/20 11:38:49;;;;;;;0.95;0.95;;;;;;;20.77;48.77;100104.31;5053161;28;20276;-69
2022/09/20 11:41:21;;;;;;;1.27;1.13;;;;;;;21.12;49.22;100116.56;5034345;28;20242;-69
2022/09/20 11:43:50;;;;;;;1.20;1.10;;;;;;;21.12;49.60;100111.28;5053220;28;20198;-70
2022/09/20 11:46:23;;;;;;;0.90;0.90;;;;;;;20.92;49.57;100108.31;5052925;28;20722;-70
2022/09/20 11:48:54;;;;;;;4.97;1.00;;;;;;;20.63;49.08;100116.09;5053051;28;20199;-70
2022/09/20 11:51:37;;;;;;;1.10;1.10;;;;;;;20.98;49.05;100112.53;5053143;28;20519;-70
2022/09/20 11:54:30;;;;;;;1.00;1.00;;;;;;;21.12;47.22;100107.78;5035354;28;20195;-70
2022/09/20 11:56:59;;;;;;;0.80;0.80;;;;;;;20.68;48.56;100103.69;5052678;28;20203;-70
2022/09/20 11:59:30;;;;;;;0.98;0.98;;;;;;;20.75;47.99;100100.00;5052753;28;20200;-70
2022/09/20 12:02:00;;;;;;;1.27;1.00;;;;;;;20.58;47.60;100108.31;5052627;28;20227;-70
2022/09/20 12:04:30;;;;;;;0.70;0.70;;;;;;;20.02;47.43;100046.47;5052501;28;20663;-70
2022/09/20 12:07:00;;;;;;;1.05;1.05;;;;;;;20.57;47.63;100097.81;5052689;28;20206;-70
2022/09/20 12:09:32;;;;;;;2.45;1.15;;;;;;;20.62;47.95;100103.81;5017206;28;20198;-70
2022/09/20 12:12:15;;;;;;;1.67;1.10;;;;;;;20.41;47.87;100107.00;5052456;28;20214;-71
2022/09/20 12:14:42;;;;;;;0.90;0.90;;;;;;;20.35;46.99;100120.31;5052376;28;20620;-70
2022/09/20 12:17:42;;;;;;;1.50;1.02;;;;;;;20.57;46.78;100103.97;5052295;28;20227;-70